Time;durP1;ratioP1;P1;durP2;ratioP2;P2;SDS_P1;SDS_P2;PMS_P1;PMS_P2;Temp;Humidity;BMP_temperature;BMP_pressure;BME280_temperature;BME280_humidity;BME280_pressure;Samples;Min_cycle;Max_cycle;Signal;HPM_P1;HPM_P2
2024/02/27 00:01:32;;;;;;;10.20;3.40;;;;;;;1.67;100.00;100359.22;5040406;28;20187;-77
2024/02/27 00:04:01;;;;;;;7.53;3.63;;;;;;;2.09;100.00;100469.66;5050140;28;20214;-78
2024/02/27 00:06:29;;;;;;;8.67;3.43;;;;;;;1.91;100.00;100405.34;5047783;28;20270;-77
2024/02/27 00:08:55;;;;;;;8.90;4.00;;;;;;;2.68;100.00;100559.94;5048271;28;20457;-78
2024/02/27 00:11:21;;;;;;;8.90;3.97;;;;;;;2.72;100.00;100540.97;5050407;28;20515;-77
2024/02/27 00:13:47;;;;;;;7.67;3.87;;;;;;;1.61;100.00;100357.19;5045502;28;20454;-78
2024/02/27 00:16:13;;;;;;;8.00;4.00;;;;;;;2.02;100.00;100413.03;5044613;28;20437;-78
2024/02/27 00:18:39;;;;;;;9.23;4.30;;;;;;;2.20;100.00;100461.50;5043446;28;20208;-78
2024/02/27 00:21:04;;;;;;;11.50;5.70;;;;;;;2.85;100.00;100526.47;5046848;28;20955;-77
2024/02/27 00:23:31;;;;;;;9.40;4.70;;;;;;;2.19;100.00;100416.63;5045924;28;20641;-78
2024/02/27 00:25:57;;;;;;;9.20;4.60;;;;;;;2.43;100.00;100445.06;5045240;28;20191;-78
2024/02/27 00:28:22;;;;;;;7.40;4.00;;;;;;;2.49;100.00;100416.19;5044782;28;20458;-77
2024/02/27 00:30:49;;;;;;;7.20;4.50;;;;;;;1.79;100.00;100309.56;5043851;28;20220;-78
2024/02/27 00:33:14;;;;;;;10.87;4.43;;;;;;;2.33;100.00;100386.97;5046046;28;20807;-78
2024/02/27 00:35:40;;;;;;;9.13;4.90;;;;;;;2.47;100.00;100404.91;5043453;28;20241;-78
2024/02/27 00:38:05;;;;;;;9.40;4.93;;;;;;;2.44;100.00;100404.41;5047637;28;20215;-78
2024/02/27 00:40:31;;;;;;;9.90;5.30;;;;;;;2.85;100.00;100484.06;5048378;28;20212;-78
2024/02/27 00:42:56;;;;;;;9.27;5.30;;;;;;;2.29;100.00;100398.84;5049721;28;20191;-77
2024/02/27 00:45:22;;;;;;;10.33;5.87;;;;;;;1.68;100.00;100265.72;5045649;28;20192;-77
2024/02/27 00:47:47;;;;;;;11.77;5.30;;;;;;;2.53;100.00;100426.47;5046003;28;20199;-77
2024/02/27 00:50:13;;;;;;;10.73;5.00;;;;;;;2.77;100.00;100455.72;5040951;28;20183;-78
2024/02/27 00:52:38;;;;;;;9.37;5.00;;;;;;;1.97;100.00;100338.63;5042386;28;20199;-78
2024/02/27 00:55:04;;;;;;;9.53;4.80;;;;;;;2.28;100.00;100425.47;5045620;28;20214;-77
2024/02/27 00:57:33;;;;;;;8.43;4.63;;;;;;;2.42;100.00;100423.06;5051717;28;20279;-77
2024/02/27 01:00:04;;;;;;;12.23;6.13;;;;;;;2.26;100.00;100389.41;5049038;28;20522;-78
2024/02/27 01:02:29;;;;;;;12.10;5.17;;;;;;;1.44;100.00;100287.50;5043000;28;20437;-78
2024/02/27 01:04:55;;;;;;;8.30;4.80;;;;;;;2.33;100.00;100431.97;5042783;28;20443;-78
2024/02/27 01:07:20;;;;;;;10.07;4.97;;;;;;;1.49;100.00;100272.00;5046610;28;20614;-78
2024/02/27 01:09:45;;;;;;;10.47;5.47;;;;;;;1.90;100.00;100343.69;5043004;28;20599;-77
2024/02/27 01:12:11;;;;;;;10.33;6.10;;;;;;;1.85;100.00;100335.38;5052892;28;20593;-78
2024/02/27 01:14:36;;;;;;;7.63;5.00;;;;;;;2.42;100.00;100430.19;5044847;28;20566;-78
2024/02/27 01:17:02;;;;;;;9.50;5.40;;;;;;;2.61;100.00;100472.34;5048614;28;20279;-78
2024/02/27 01:19:27;;;;;;;11.40;5.90;;;;;;;2.52;100.00;100472.44;5046394;28;20209;-78
2024/02/27 01:21:58;;;;;;;10.30;5.87;;;;;;;2.82;100.00;100429.59;5045383;28;20841;-78
2024/02/27 01:24:23;;;;;;;9.20;5.30;;;;;;;2.47;100.00;100354.63;5049656;28;20245;-78
2024/02/27 01:26:49;;;;;;;10.70;5.70;;;;;;;2.61;100.00;100350.56;5047058;28;20442;-78
2024/02/27 01:29:14;;;;;;;10.47;5.77;;;;;;;2.41;100.00;100410.84;5045084;28;20222;-78
2024/02/27 01:31:40;;;;;;;10.63;5.97;;;;;;;2.26;100.00;100384.13;5042301;28;20198;-78
2024/02/27 01:34:05;;;;;;;10.20;6.00;;;;;;;2.58;100.00;100435.59;5042674;28;20553;-78
2024/02/27 01:36:31;;;;;;;12.40;6.20;;;;;;;3.09;100.00;100468.28;5043611;28;20278;-78
2024/02/27 01:38:57;;;;;;;9.97;5.93;;;;;;;2.16;100.00;100319.06;5043757;28;20240;-78
2024/02/27 01:41:22;;;;;;;10.20;5.53;;;;;;;2.20;100.00;100328.34;5044930;28;21151;-78
2024/02/27 01:43:47;;;;;;;10.00;6.30;;;;;;;3.20;100.00;100496.34;5049642;28;20191;-78
2024/02/27 01:46:18;;;;;;;11.97;6.20;;;;;;;2.28;100.00;100359.31;5046805;28;20257;-78
2024/02/27 01:48:45;;;;;;;11.53;6.20;;;;;;;2.76;100.00;100469.13;5048403;28;20215;-78
2024/02/27 01:51:13;;;;;;;11.50;7.03;;;;;;;2.76;100.00;100477.06;5042524;28;20495;-78
2024/02/27 01:53:40;;;;;;;11.40;6.63;;;;;;;3.49;100.00;100604.66;5041525;28;20438;-78
2024/02/27 01:56:07;;;;;;;11.77;7.10;;;;;;;2.65;100.00;100515.22;5038593;28;20499;-78
2024/02/27 01:58:33;;;;;;;13.40;6.50;;;;;;;3.26;100.00;100657.38;5044009;28;20870;-78
2024/02/27 02:01:02;;;;;;;11.17;5.73;;;;;;;2.45;100.00;100480.19;5037247;28;20477;-78
2024/02/27 02:03:31;;;;;;;11.50;6.60;;;;;;;2.87;100.00;100617.22;5042588;28;20237;-78
2024/02/27 02:05:58;;;;;;;13.13;6.40;;;;;;;2.42;100.00;100573.97;5044910;28;20446;-78
2024/02/27 02:08:25;;;;;;;11.20;6.77;;;;;;;2.08;100.00;100543.88;5045382;28;20465;-78
2024/02/27 02:10:51;;;;;;;10.50;6.20;;;;;;;2.44;100.00;100527.00;5044626;28;20449;-78
2024/02/27 02:13:17;;;;;;;11.40;6.77;;;;;;;2.23;100.00;100511.47;5044930;28;20806;-78
2024/02/27 02:15:43;;;;;;;11.17;6.27;;;;;;;2.90;100.00;100672.53;5047285;28;20524;-78
2024/02/27 02:18:08;;;;;;;11.27;7.30;;;;;;;2.11;100.00;100546.22;5047310;28;20215;-78
2024/02/27 02:20:34;;;;;;;12.30;6.90;;;;;;;1.85;100.00;100539.00;5048558;28;20469;-78
2024/02/27 02:22:59;;;;;;;13.93;7.03;;;;;;;2.57;100.00;100624.56;5050509;28;20287;-77
2024/02/27 02:25:30;;;;;;;13.00;7.00;;;;;;;1.68;100.00;100511.59;5045428;28;20210;-81
2024/02/27 02:27:55;;;;;;;13.07;7.10;;;;;;;2.11;100.00;100512.69;5050144;28;20203;-78
2024/02/27 02:30:21;;;;;;;12.30;7.00;;;;;;;2.29;100.00;100510.03;5051319;28;20818;-78
2024/02/27 02:32:51;;;;;;;11.90;6.47;;;;;;;3.16;100.00;100607.13;5056204;28;20198;-77
2024/02/27 02:35:17;;;;;;;10.57;6.33;;;;;;;3.14;100.00;100640.91;5048766;28;20192;-78
2024/02/27 02:37:47;;;;;;;11.10;5.97;;;;;;;2.96;100.00;100605.69;5043917;28;20466;-78
2024/02/27 02:40:14;;;;;;;14.40;6.80;;;;;;;3.48;100.00;100666.66;5050216;28;20465;-78
2024/02/27 02:42:40;;;;;;;12.47;6.80;;;;;;;3.17;100.00;100653.84;5051742;28;20437;-78
2024/02/27 02:45:06;;;;;;;11.27;5.50;;;;;;;2.23;100.00;100601.44;5049267;28;20444;-77
2024/02/27 02:47:31;;;;;;;13.80;6.67;;;;;;;3.17;100.00;100653.84;5044815;28;20206;-78
2024/02/27 02:49:57;;;;;;;14.70;6.90;;;;;;;2.13;100.00;100583.94;5041361;28;20454;-78
2024/02/27 02:52:22;;;;;;;10.53;6.43;;;;;;;3.07;100.00;100636.41;5043380;28;20253;-78
2024/02/27 02:54:47;;;;;;;11.80;6.70;;;;;;;1.80;100.00;100499.81;5047955;28;20267;-78
2024/02/27 02:57:13;;;;;;;10.13;5.73;;;;;;;1.87;100.00;100537.06;5048756;28;20648;-78
2024/02/27 02:59:38;;;;;;;12.47;6.40;;;;;;;2.17;100.00;100609.97;5046756;28;20211;-78
2024/02/27 03:02:04;;;;;;;11.23;5.60;;;;;;;2.49;100.00;100648.34;5045110;28;20282;-78
2024/02/27 03:04:29;;;;;;;11.60;6.03;;;;;;;1.56;100.00;100462.53;5050457;28;20215;-78
2024/02/27 03:06:55;;;;;;;12.90;5.60;;;;;;;2.11;100.00;100555.00;5046947;28;20199;-78
2024/02/27 03:09:20;;;;;;;14.30;5.90;;;;;;;1.79;100.00;100482.28;5047207;28;20296;-78
2024/02/27 03:11:49;;;;;;;10.63;5.53;;;;;;;2.89;100.00;100610.78;5049465;28;20187;-78
2024/02/27 03:14:18;;;;;;;11.40;6.10;;;;;;;3.27;100.00;100626.41;5051410;28;20702;-78
2024/02/27 03:16:45;;;;;;;13.27;6.67;;;;;;;2.24;100.00;100484.00;5043309;28;20804;-78
2024/02/27 03:19:11;;;;;;;12.13;5.33;;;;;;;1.87;100.00;100486.81;5049417;28;21029;-78
2024/02/27 03:21:37;;;;;;;10.80;5.27;;;;;;;2.60;100.00;100605.72;5048593;28;20967;-78
2024/02/27 03:24:03;;;;;;;13.20;6.00;;;;;;;2.53;100.00;100601.19;5056610;28;20423;-78
2024/02/27 03:26:28;;;;;;;9.80;5.37;;;;;;;1.63;100.00;100498.00;5051392;28;20694;-79
2024/02/27 03:28:54;;;;;;;9.33;5.73;;;;;;;2.61;100.00;100574.81;5049513;28;20286;-78
2024/02/27 03:31:19;;;;;;;10.40;6.07;;;;;;;1.96;100.00;100474.50;5051809;28;20653;-79
2024/02/27 03:33:45;;;;;;;9.63;5.20;;;;;;;2.07;100.00;100495.44;5051392;28;20210;-79
2024/02/27 03:36:10;;;;;;;10.43;5.80;;;;;;;2.02;100.00;100407.75;5047470;28;20187;-78
2024/02/27 03:38:36;;;;;;;10.80;5.33;;;;;;;1.58;100.00;100360.97;5050796;28;20203;-78
2024/02/27 03:41:02;;;;;;;10.23;5.50;;;;;;;2.93;100.00;100529.16;5050337;28;20574;-78
2024/02/27 03:43:28;;;;;;;10.00;5.43;;;;;;;1.87;100.00;100375.72;5050036;28;20429;-78
2024/02/27 03:45:54;;;;;;;17.40;5.37;;;;;;;2.13;100.00;100382.88;5047078;28;20249;-78
2024/02/27 03:48:19;;;;;;;11.80;5.70;;;;;;;1.93;100.00;100384.88;5045685;28;20457;-78
2024/02/27 03:50:44;;;;;;;10.90;5.97;;;;;;;2.79;100.00;100482.06;5044690;28;20203;-78
2024/02/27 03:53:10;;;;;;;12.77;6.90;;;;;;;2.85;100.00;100513.22;5046005;28;20652;-78
2024/02/27 03:55:36;;;;;;;11.27;6.20;;;;;;;2.25;100.00;100357.81;5049868;28;20187;-78
2024/02/27 03:58:02;;;;;;;11.80;6.20;;;;;;;1.89;100.00;100339.38;5047029;28;20298;-78
2024/02/27 04:00:28;;;;;;;10.93;5.40;;;;;;;2.03;100.00;100386.44;5046714;28;20565;-78
2024/02/27 04:02:54;;;;;;;8.73;4.77;;;;;;;2.30;100.00;100442.03;5046957;28;20234;-79
2024/02/27 04:05:20;;;;;;;10.40;5.60;;;;;;;2.22;100.00;100409.22;5048694;28;20188;-78
2024/02/27 04:07:46;;;;;;;10.83;6.40;;;;;;;2.46;100.00;100458.88;5050113;28;20807;-79
2024/02/27 04:10:11;;;;;;;11.30;6.47;;;;;;;2.91;100.00;100497.50;5045490;28;20183;-78
2024/02/27 04:12:37;;;;;;;10.47;5.53;;;;;;;2.15;100.00;100396.78;5051417;28;20192;-78
2024/02/27 04:15:02;;;;;;;11.20;5.70;;;;;;;2.98;100.00;100528.69;5047006;28;20184;-78
2024/02/27 04:17:28;;;;;;;9.67;6.20;;;;;;;2.34;100.00;100432.78;5045167;28;20743;-78
2024/02/27 04:19:58;;;;;;;10.20;5.80;;;;;;;2.74;100.00;100479.88;5035334;28;20208;-79
2024/02/27 04:22:23;;;;;;;13.13;6.77;;;;;;;2.64;100.00;100456.16;5043439;28;21170;-78
2024/02/27 04:24:49;;;;;;;11.70;5.83;;;;;;;3.21;100.00;100466.22;5042115;28;20529;-78
2024/02/27 04:27:14;;;;;;;10.70;5.80;;;;;;;3.31;100.00;100533.16;5042409;28;20191;-78
2024/02/27 04:29:40;;;;;;;12.60;6.60;;;;;;;2.20;100.00;100379.47;5043655;28;20183;-78
2024/02/27 04:32:10;;;;;;;11.50;5.93;;;;;;;1.79;100.00;100325.41;5068327;22;20668;-74
2024/02/27 04:34:38;;;;;;;17.57;6.43;;;;;;;1.75;100.00;100297.63;5040942;28;20481;-74
2024/02/27 04:37:04;;;;;;;10.13;6.03;;;;;;;2.85;100.00;100494.66;5042888;28;20521;-74
2024/02/27 04:39:30;;;;;;;9.70;5.90;;;;;;;2.65;100.00;100439.25;5060818;28;20564;-74
2024/02/27 04:41:55;;;;;;;11.23;6.13;;;;;;;3.33;100.00;100533.84;5045617;28;20576;-75
2024/02/27 04:44:20;;;;;;;11.00;6.80;;;;;;;3.19;100.00;100489.38;5061885;28;20437;-74
2024/02/27 04:46:46;;;;;;;12.90;6.40;;;;;;;3.71;100.00;100544.09;5061751;28;20195;-75
2024/02/27 04:49:11;;;;;;;10.60;6.00;;;;;;;3.07;100.00;100461.50;5063592;28;20213;-74
2024/02/27 04:51:37;;;;;;;9.97;6.13;;;;;;;3.44;100.00;100542.47;5064498;28;20243;-74
2024/02/27 04:54:03;;;;;;;13.73;6.17;;;;;;;3.21;100.00;100503.31;5061348;28;20183;-74
2024/02/27 04:56:28;;;;;;;11.70;6.77;;;;;;;3.42;100.00;100540.00;5044008;28;20199;-74
2024/02/27 04:58:54;;;;;;;10.17;6.50;;;;;;;3.65;100.00;100534.13;5065673;28;20238;-74
2024/02/27 05:01:20;;;;;;;11.53;7.10;;;;;;;3.32;100.00;100528.69;5047464;28;20301;-74
2024/02/27 05:03:45;;;;;;;11.30;6.00;;;;;;;3.51;100.00;100540.88;5063894;28;20198;-74
2024/02/27 05:06:11;;;;;;;12.03;6.70;;;;;;;2.61;100.00;100392.91;5060938;28;20429;-74
2024/02/27 05:08:36;;;;;;;10.90;7.07;;;;;;;3.12;100.00;100467.97;5064062;28;20675;-74
2024/02/27 05:11:02;;;;;;;9.90;5.30;;;;;;;3.35;100.00;100528.38;5061977;28;20691;-74
2024/02/27 05:13:28;;;;;;;9.30;6.00;;;;;;;2.85;100.00;100453.13;5048475;28;20199;-74
2024/02/27 05:15:54;;;;;;;10.50;6.03;;;;;;;3.48;100.00;100530.59;5045484;28;20191;-74
2024/02/27 05:18:20;;;;;;;10.77;6.17;;;;;;;2.92;100.00;100437.41;5044857;28;20563;-74
2024/02/27 05:20:45;;;;;;;15.03;6.03;;;;;;;3.71;100.00;100518.38;5043334;28;21051;-74
2024/02/27 05:23:11;;;;;;;10.83;5.67;;;;;;;3.04;100.00;100473.25;5047090;28;20236;-74
2024/02/27 05:25:36;;;;;;;12.30;6.73;;;;;;;3.34;100.00;100508.97;5047415;28;20178;-74
2024/02/27 05:28:02;;;;;;;11.30;6.57;;;;;;;2.66;100.00;100410.97;5043286;28;20257;-74
2024/02/27 05:30:27;;;;;;;10.50;6.50;;;;;;;3.42;100.00;100520.63;5044110;28;20960;-74
2024/02/27 05:32:53;;;;;;;11.47;6.40;;;;;;;2.96;100.00;100473.22;5060198;28;20188;-74
2024/02/27 05:35:18;;;;;;;11.37;6.60;;;;;;;3.81;100.00;100564.16;5062874;28;20191;-75
2024/02/27 05:37:44;;;;;;;8.90;5.50;;;;;;;3.16;100.00;100452.59;5047255;28;20257;-74
2024/02/27 05:40:12;;;;;;;11.83;6.20;;;;;;;3.68;100.00;100545.25;5041975;28;20218;-74
2024/02/27 05:42:38;;;;;;;10.40;6.57;;;;;;;3.79;100.00;100523.72;5044355;28;20206;-74
2024/02/27 05:45:04;;;;;;;12.03;6.87;;;;;;;3.14;100.00;100430.72;5063485;28;20461;-75
2024/02/27 05:47:29;;;;;;;9.90;6.57;;;;;;;3.83;100.00;100493.22;5069097;28;20995;-74
2024/02/27 05:49:55;;;;;;;11.83;6.07;;;;;;;3.03;100.00;100397.38;5061047;28;20273;-74
2024/02/27 05:52:20;;;;;;;9.97;6.00;;;;;;;3.63;100.00;100535.09;5064488;28;20187;-74
2024/02/27 05:54:46;;;;;;;10.03;6.50;;;;;;;3.94;100.00;100565.53;5061387;28;20199;-74
2024/02/27 05:57:12;;;;;;;9.07;6.20;;;;;;;3.58;100.00;100533.91;5050342;28;20214;-74
2024/02/27 05:59:37;;;;;;;12.20;6.93;;;;;;;3.78;100.00;100548.56;5062122;28;20505;-74
2024/02/27 06:02:04;;;;;;;9.60;6.00;;;;;;;3.81;100.00;100576.59;5064236;28;20629;-74
2024/02/27 06:04:31;;;;;;;10.30;6.60;;;;;;;3.80;100.00;100575.78;5043595;28;20795;-74
2024/02/27 06:06:56;;;;;;;15.73;6.93;;;;;;;3.21;100.00;100450.31;5049148;28;20460;-74
2024/02/27 06:09:22;;;;;;;11.37;6.50;;;;;;;3.39;100.00;100529.72;5061937;28;20446;-74
2024/02/27 06:11:47;;;;;;;10.57;6.40;;;;;;;3.82;100.00;100581.75;5063297;28;20206;-74
2024/02/27 06:14:15;;;;;;;10.30;6.30;;;;;;;3.43;100.00;100530.22;5065073;28;20209;-74
2024/02/27 06:16:40;;;;;;;9.77;6.53;;;;;;;3.49;100.00;100564.88;5065271;28;20186;-74
2024/02/27 06:19:07;;;;;;;13.93;6.70;;;;;;;3.82;100.00;100599.50;5062523;28;20437;-74
2024/02/27 06:24:16;;;;;;;10.33;5.90;;;;;;;3.78;100.00;100612.25;5058213;28;20503;-74
2024/02/27 06:26:42;;;;;;;11.63;7.30;;;;;;;3.74;100.00;100616.22;5062424;28;20446;-74
2024/02/27 06:29:07;;;;;;;9.60;6.33;;;;;;;3.45;100.00;100562.72;5064439;28;20203;-74
2024/02/27 06:31:32;;;;;;;11.07;6.70;;;;;;;3.75;100.00;100599.31;5062145;28;20202;-74
2024/02/27 06:33:59;;;;;;;9.23;6.33;;;;;;;3.24;100.00;100499.50;5062890;28;20631;-75
2024/02/27 06:36:25;;;;;;;12.60;7.10;;;;;;;3.27;100.00;100558.34;5047741;28;20182;-74
2024/02/27 06:38:50;;;;;;;10.60;6.87;;;;;;;3.48;100.00;100587.09;5065197;28;20876;-74
2024/02/27 06:41:15;;;;;;;11.30;7.50;;;;;;;3.84;100.00;100618.72;5060690;28;20214;-74
2024/02/27 06:43:41;;;;;;;12.30;6.40;;;;;;;3.80;100.00;100626.19;5063667;28;20536;-74
2024/02/27 06:46:06;;;;;;;9.40;5.83;;;;;;;3.00;100.00;100505.50;5060703;28;20183;-74
2024/02/27 06:48:32;;;;;;;10.03;6.20;;;;;;;3.75;100.00;100604.59;5062152;28;20199;-74
2024/02/27 06:50:58;;;;;;;9.03;6.10;;;;;;;3.27;100.00;100509.78;5048403;28;20217;-74
2024/02/27 06:53:23;;;;;;;12.57;6.40;;;;;;;3.37;100.00;100574.94;5064331;28;20236;-74
2024/02/27 06:55:49;;;;;;;10.20;5.80;;;;;;;3.31;100.00;100603.91;5051023;28;20269;-74
2024/02/27 06:58:15;;;;;;;10.60;5.83;;;;;;;4.32;100.00;100723.44;5059497;28;20206;-74
2024/02/27 07:00:42;;;;;;;10.83;6.80;;;;;;;3.44;100.00;100651.19;5043648;28;20210;-74
2024/02/27 07:03:07;;;;;;;9.83;6.30;;;;;;;4.03;100.00;100779.56;5041899;28;20437;-74
2024/02/27 07:05:34;;;;;;;10.13;6.83;;;;;;;3.25;100.00;100687.53;5059614;28;20818;-74
2024/02/27 07:07:59;;;;;;;9.90;6.17;;;;;;;3.67;100.00;100715.97;5067004;28;20214;-75
2024/02/27 07:10:25;;;;;;;9.33;5.90;;;;;;;3.89;100.00;100770.34;5049715;28;20426;-74
2024/02/27 07:12:50;;;;;;;8.90;5.73;;;;;;;4.20;100.00;100809.69;5059539;28;20186;-74
2024/02/27 07:15:16;;;;;;;9.40;6.67;;;;;;;3.34;100.00;100722.91;5060500;28;20209;-74
2024/02/27 07:17:41;;;;;;;10.17;6.57;;;;;;;4.20;100.00;100873.38;5061647;28;20206;-74
2024/02/27 07:20:09;;;;;;;12.73;6.53;;;;;;;4.07;100.00;100873.78;5045181;28;20200;-74
2024/02/27 07:22:34;;;;;;;10.20;5.87;;;;;;;3.66;100.00;100775.34;5046057;28;20187;-74
2024/02/27 07:25:03;;;;;;;9.40;6.43;;;;;;;3.79;100.00;100798.78;5065671;28;20485;-74
2024/02/27 07:27:28;;;;;;;11.13;6.30;;;;;;;3.28;100.00;100747.38;5063760;28;20184;-74
2024/02/27 07:29:54;;;;;;;9.40;6.23;;;;;;;3.59;100.00;100766.34;5061716;28;20437;-74
2024/02/27 07:32:19;;;;;;;8.93;6.00;;;;;;;3.49;100.00;100745.22;5064612;28;20183;-74
2024/02/27 07:34:46;;;;;;;10.77;6.90;;;;;;;3.88;100.00;100794.38;5044100;28;20705;-74
2024/02/27 07:37:14;;;;;;;10.43;7.30;;;;;;;4.20;100.00;100838.88;5043791;28;20273;-74
2024/02/27 07:39:39;;;;;;;10.00;6.40;;;;;;;4.15;100.00;100827.88;5047018;28;20468;-74
2024/02/27 07:42:05;;;;;;;10.70;6.90;;;;;;;4.19;100.00;100819.44;5060574;28;20445;-74
2024/02/27 07:44:31;;;;;;;12.13;7.17;;;;;;;4.11;100.00;100805.28;5038725;28;20266;-74
2024/02/27 07:46:56;;;;;;;12.23;7.43;;;;;;;4.26;100.00;100807.22;5061640;28;20544;-74
2024/02/27 07:49:22;;;;;;;12.20;7.83;;;;;;;4.32;100.00;100807.56;5042773;28;20207;-74
2024/02/27 07:51:48;;;;;;;11.70;7.40;;;;;;;4.35;100.00;100813.41;5046947;28;20184;-74
2024/02/27 07:54:16;;;;;;;9.60;7.10;;;;;;;3.79;100.00;100735.97;5063936;28;20187;-74
2024/02/27 07:56:43;;;;;;;9.47;6.73;;;;;;;4.29;100.00;100811.38;5042354;28;20637;-74
2024/02/27 07:59:10;;;;;;;10.50;7.20;;;;;;;4.43;100.00;100828.53;5055357;28;20458;-74
2024/02/27 08:01:35;;;;;;;10.90;7.07;;;;;;;3.78;100.00;100790.00;5059991;28;20468;-74
2024/02/27 08:04:01;;;;;;;12.63;8.17;;;;;;;3.86;100.00;100802.50;5059966;28;20808;-74
2024/02/27 08:06:27;;;;;;;12.27;7.77;;;;;;;4.05;100.00;100846.56;5061918;28;20206;-74
2024/02/27 08:08:54;;;;;;;10.53;7.03;;;;;;;3.80;100.00;100822.53;5046746;28;20210;-74
2024/02/27 08:11:21;;;;;;;10.07;7.27;;;;;;;3.74;100.00;100825.81;5042258;28;20441;-74
2024/02/27 08:13:47;;;;;;;10.90;7.63;;;;;;;3.78;100.00;100799.78;5042678;28;20442;-74
2024/02/27 08:16:12;;;;;;;11.63;7.17;;;;;;;4.51;100.00;100926.84;5046730;28;20444;-74
2024/02/27 08:18:38;;;;;;;10.80;7.97;;;;;;;3.68;100.00;100821.13;5061799;28;20203;-74
2024/02/27 08:21:04;;;;;;;12.33;8.50;;;;;;;3.89;100.00;100849.94;5060458;28;20218;-74
2024/02/27 08:23:30;;;;;;;10.77;8.53;;;;;;;4.48;100.00;100983.78;5043859;28;20298;-74
2024/02/27 08:25:55;;;;;;;12.10;8.37;;;;;;;3.94;100.00;100876.03;5045076;28;20178;-74
2024/02/27 08:28:22;;;;;;;10.50;7.80;;;;;;;4.49;100.00;100948.25;5044714;28;20457;-74
2024/02/27 08:30:48;;;;;;;14.13;7.70;;;;;;;4.43;100.00;100948.06;5042675;28;20287;-74
2024/02/27 08:33:14;;;;;;;11.33;8.27;;;;;;;3.84;100.00;100874.28;5060846;28;20489;-74
2024/02/27 08:35:39;;;;;;;11.90;8.50;;;;;;;4.52;100.00;101014.34;5041525;28;20425;-74
2024/02/27 08:38:05;;;;;;;10.73;7.70;;;;;;;4.34;100.00;100971.06;5047989;28;20456;-74
2024/02/27 08:40:31;;;;;;;12.87;8.47;;;;;;;4.53;100.00;101031.13;5061485;28;20207;-74
2024/02/27 08:42:57;;;;;;;11.50;8.77;;;;;;;3.75;100.00;100953.97;5057129;28;20187;-74
2024/02/27 08:45:23;;;;;;;14.40;8.77;;;;;;;3.94;100.00;100993.63;5061530;28;20894;-74
2024/02/27 08:47:50;;;;;;;11.63;8.50;;;;;;;4.76;100.00;101064.16;5061858;28;20456;-74
2024/02/27 08:50:16;;;;;;;11.77;8.87;;;;;;;4.05;100.00;101006.69;5042948;28;20623;-74
2024/02/27 08:52:41;;;;;;;10.40;8.00;;;;;;;4.67;100.00;101091.69;5063432;28;20491;-74
2024/02/27 08:55:08;;;;;;;10.97;7.60;;;;;;;3.98;100.00;101048.06;5064954;28;20434;-74
2024/02/27 08:57:34;;;;;;;10.70;8.03;;;;;;;4.50;100.00;101151.81;5045083;28;20569;-74
2024/02/27 09:00:00;;;;;;;12.70;7.60;;;;;;;4.44;100.00;101156.91;5057135;28;20466;-75
2024/02/27 09:02:25;;;;;;;11.20;8.00;;;;;;;3.75;100.00;101068.88;5059652;28;21055;-74
2024/02/27 09:04:51;;;;;;;10.17;7.37;;;;;;;4.38;100.00;101186.72;5062992;28;20429;-74
2024/02/27 09:07:16;;;;;;;8.90;6.60;;;;;;;4.48;100.00;101225.50;5058337;28;20571;-74
2024/02/27 09:09:45;;;;;;;10.93;7.67;;;;;;;4.48;100.00;101249.44;5057837;28;20187;-74
2024/02/27 09:12:11;;;;;;;13.80;7.80;;;;;;;3.94;100.00;101166.16;5055148;28;20240;-74
2024/02/27 09:14:37;;;;;;;9.93;7.33;;;;;;;4.49;100.00;101271.50;5060447;28;20437;-75
2024/02/27 09:17:03;;;;;;;9.00;6.60;;;;;;;3.86;100.00;101179.31;5048207;28;20434;-74
2024/02/27 09:19:29;;;;;;;11.47;8.43;;;;;;;4.37;100.00;101293.91;5063698;28;20461;-74
2024/02/27 09:21:55;;;;;;;11.50;8.47;;;;;;;4.27;100.00;101308.06;5058718;28;20190;-74
2024/02/27 09:24:21;;;;;;;11.90;8.70;;;;;;;4.28;100.00;101264.63;5044319;28;20433;-74
2024/02/27 09:26:47;;;;;;;12.60;9.10;;;;;;;3.77;100.00;101207.56;5064242;28;20449;-74
2024/02/27 09:29:13;;;;;;;11.73;8.97;;;;;;;3.75;100.00;101214.81;5046274;28;20798;-74
2024/02/27 09:31:38;;;;;;;11.83;9.30;;;;;;;3.55;100.00;101195.47;5046694;28;20188;-74
2024/02/27 09:34:06;;;;;;;13.40;10.40;;;;;;;3.48;100.00;101180.28;5046632;28;20461;-74
2024/02/27 09:36:32;;;;;;;14.47;10.40;;;;;;;3.69;100.00;101203.94;5048135;28;20186;-74
2024/02/27 09:38:57;;;;;;;13.63;9.03;;;;;;;4.30;100.00;101269.78;5044267;28;20966;-74
2024/02/27 09:41:41;;;;;;;11.63;8.63;;;;;;;4.16;100.00;101287.03;5044197;28;20218;-74
2024/02/27 09:44:07;;;;;;;13.10;9.50;;;;;;;3.67;100.00;101227.97;5064871;28;20202;-74
2024/02/27 09:46:33;;;;;;;11.90;9.03;;;;;;;4.40;100.00;101296.31;5041606;28;20968;-74
2024/02/27 09:49:00;;;;;;;13.33;10.27;;;;;;;4.15;100.00;101253.50;5062821;28;20465;-74
2024/02/27 09:51:27;;;;;;;12.00;8.87;;;;;;;3.75;100.00;101228.09;5042108;28;20434;-74
2024/02/27 09:53:57;;;;;;;12.17;8.93;;;;;;;4.41;100.00;101343.13;5065066;28;20456;-74
2024/02/27 09:56:24;;;;;;;11.70;8.50;;;;;;;4.11;100.00;101333.56;5041462;28;21040;-74
2024/02/27 09:58:50;;;;;;;12.67;8.80;;;;;;;3.72;100.00;101265.50;5044485;28;20511;-74
2024/02/27 10:01:18;;;;;;;12.50;9.70;;;;;;;4.29;100.00;101382.31;5062514;28;20464;-74
2024/02/27 10:03:46;;;;;;;11.80;9.27;;;;;;;4.37;100.00;101360.31;5047348;28;20433;-74
2024/02/27 10:06:14;;;;;;;12.87;9.17;;;;;;;4.09;100.00;101349.66;5065250;28;20790;-74
2024/02/27 10:08:46;;;;;;;14.47;9.07;;;;;;;4.48;100.00;101373.41;5044298;28;21011;-74
2024/02/27 10:11:12;;;;;;;14.03;10.10;;;;;;;4.44;100.00;101362.25;5049281;28;20899;-74
2024/02/27 10:13:38;;;;;;;14.40;10.47;;;;;;;4.24;100.00;101337.59;5065102;28;20945;-74
2024/02/27 10:16:04;;;;;;;13.13;10.43;;;;;;;3.45;100.00;101250.38;5065739;28;20432;-74
2024/02/27 10:18:31;;;;;;;14.00;10.50;;;;;;;3.75;100.00;101291.75;5041062;28;20206;-74
2024/02/27 10:20:56;;;;;;;15.43;10.73;;;;;;;4.28;100.00;101360.22;5046700;28;20465;-74
2024/02/27 10:23:21;;;;;;;14.97;10.70;;;;;;;4.22;100.00;101363.47;5047818;28;20449;-74
2024/02/27 10:25:48;;;;;;;15.50;10.43;;;;;;;4.22;100.00;101354.63;5044759;28;20179;-74
2024/02/27 10:28:17;;;;;;;15.23;11.50;;;;;;;3.77;100.00;101281.84;5044519;28;20222;-74
2024/02/27 10:30:43;;;;;;;13.73;10.53;;;;;;;3.79;100.00;101256.00;5046755;28;20437;-74
2024/02/27 10:33:13;;;;;;;15.00;11.23;;;;;;;3.84;100.00;101245.78;5047717;28;20897;-74
2024/02/27 10:35:39;;;;;;;16.20;11.40;;;;;;;4.37;100.00;101326.66;5045221;28;20262;-74
2024/02/27 10:38:34;;;;;;;14.23;10.03;;;;;;;4.52;100.00;101373.00;5062303;28;20544;-74
2024/02/27 10:41:00;;;;;;;14.30;10.10;;;;;;;3.68;100.00;101274.75;5032522;28;20465;-74
2024/02/27 10:43:26;;;;;;;14.67;10.73;;;;;;;4.51;100.00;101378.44;5045891;28;20446;-74
2024/02/27 10:45:54;;;;;;;14.50;10.33;;;;;;;3.75;100.00;101307.69;5063056;28;20796;-74
2024/02/27 10:48:19;;;;;;;14.43;10.57;;;;;;;3.69;100.00;101318.88;5058358;28;20450;-74
2024/02/27 10:50:46;;;;;;;14.67;9.70;;;;;;;4.43;100.00;101386.31;5045659;28;20437;-74
2024/02/27 10:53:12;;;;;;;14.00;10.20;;;;;;;4.46;100.00;101400.13;5064303;28;20183;-74
2024/02/27 10:55:38;;;;;;;15.33;11.10;;;;;;;4.38;100.00;101452.31;5046668;28;20982;-74
2024/02/27 10:58:04;;;;;;;16.30;12.00;;;;;;;3.63;100.00;101324.75;5044152;28;20204;-74
2024/02/27 11:00:31;;;;;;;13.80;10.77;;;;;;;3.73;100.00;101322.06;5045351;28;20900;-73
2024/02/27 11:02:57;;;;;;;14.93;11.27;;;;;;;3.89;100.00;101310.88;5043756;28;20209;-74
2024/02/27 11:05:25;;;;;;;16.90;11.30;;;;;;;4.14;100.00;101350.06;5045786;28;20433;-74
2024/02/27 11:07:54;;;;;;;16.17;10.93;;;;;;;3.96;100.00;101317.25;5061342;28;20453;-74
2024/02/27 11:10:25;;;;;;;16.30;11.40;;;;;;;3.76;100.00;101327.09;5041544;28;20453;-74
2024/02/27 11:12:52;;;;;;;15.40;10.27;;;;;;;4.20;100.00;101418.53;5059911;28;20542;-74
2024/02/27 11:15:19;;;;;;;19.03;10.90;;;;;;;4.11;100.00;101399.94;5043929;28;20437;-74